Time;durP1;ratioP1;P1;durP2;ratioP2;P2;SDS_P1;SDS_P2;PMS_P1;PMS_P2;Temp;Humidity;BMP_temperature;BMP_pressure;BME280_temperature;BME280_humidity;BME280_pressure;Samples;Min_cycle;Max_cycle;Signal;HPM_P1;HPM_P2
2024/03/11 00:03:53;;;;;;;;;;;;;;;5.73;100.00;94107.38;10515346;28;2863;-69
2024/03/11 00:08:58;;;;;;;;;;;;;;;5.66;100.00;94110.38;10522489;28;2839;-68
2024/03/11 00:14:01;;;;;;;;;;;;;;;5.61;100.00;94113.09;10516197;28;2822;-72
2024/03/11 00:19:04;;;;;;;;;;;;;;;5.46;100.00;94121.25;10517981;28;2825;-67
2024/03/11 00:24:06;;;;;;;;;;;;;;;5.49;100.00;94134.03;10512994;28;2805;-70
2024/03/11 00:29:10;;;;;;;;;;;;;;;5.32;100.00;94131.75;10510989;28;2895;-72
2024/03/11 00:34:14;;;;;;;;;;;;;;;5.24;100.00;94127.06;10511035;28;2829;-70
2024/03/11 00:39:17;;;;;;;;;;;;;;;5.30;100.00;94129.38;10516256;28;2840;-69
2024/03/11 00:44:21;;;;;;;;;;;;;;;5.25;100.00;94140.09;10511305;28;2815;-70
2024/03/11 00:49:26;;;;;;;;;;;;;;;5.20;100.00;94139.31;10513145;28;2855;-71
2024/03/11 00:54:30;;;;;;;;;;;;;;;5.03;100.00;94148.53;10515441;28;2928;-69
2024/03/11 00:59:32;;;;;;;;;;;;;;;5.13;100.00;94147.63;10517977;28;2807;-69
2024/03/11 01:04:35;;;;;;;;;;;;;;;4.97;100.00;94164.81;10513906;28;2878;-73
2024/03/11 01:09:38;;;;;;;;;;;;;;;4.82;100.00;94158.50;10511159;28;2923;-72
2024/03/11 01:14:41;;;;;;;;;;;;;;;4.71;100.00;94162.34;10515273;28;2856;-69
2024/03/11 01:19:44;;;;;;;;;;;;;;;4.68;100.00;94172.72;10518663;28;2762;-69
2024/03/11 01:24:46;;;;;;;;;;;;;;;4.69;100.00;94177.75;10516612;28;2800;-70
2024/03/11 01:29:49;;;;;;;;;;;;;;;4.73;100.00;94173.50;10511676;28;2812;-70
2024/03/11 01:34:52;;;;;;;;;;;;;;;4.56;100.00;94176.50;10509125;28;2872;-70
2024/03/11 01:39:55;;;;;;;;;;;;;;;4.56;100.00;94189.81;10508306;28;2816;-67
2024/03/11 01:44:58;;;;;;;;;;;;;;;4.76;100.00;94183.56;10513460;28;2819;-70
2024/03/11 01:50:01;;;;;;;;;;;;;;;4.65;100.00;94187.38;10510608;28;2830;-70
2024/03/11 01:55:04;;;;;;;;;;;;;;;4.60;100.00;94190.88;10505725;28;2843;-69
2024/03/11 02:00:08;;;;;;;;;;;;;;;4.72;100.00;94192.41;10509334;28;2803;-68
2024/03/11 02:05:14;;;;;;;;;;;;;;;4.52;100.00;94203.97;10479995;28;2866;-69
2024/03/11 02:10:19;;;;;;;;;;;;;;;4.46;100.00;94205.06;10498905;28;2978;-69
2024/03/11 02:15:22;;;;;;;;;;;;;;;4.44;100.00;94207.97;10518010;28;2871;-68
2024/03/11 02:20:26;;;;;;;;;;;;;;;4.52;100.00;94214.59;10514188;28;2916;-69
2024/03/11 02:25:30;;;;;;;;;;;;;;;4.63;100.00;94216.13;10510256;28;2898;-69
2024/03/11 02:30:33;;;;;;;;;;;;;;;4.66;100.00;94215.59;10507856;28;2808;-70
2024/03/11 02:35:36;;;;;;;;;;;;;;;4.72;100.00;94221.69;10511856;28;2780;-70
2024/03/11 02:40:39;;;;;;;;;;;;;;;4.63;100.00;94220.66;10505196;28;2868;-71
2024/03/11 02:45:45;;;;;;;;;;;;;;;4.55;100.00;94224.69;10511866;28;2874;-77
2024/03/11 02:50:50;;;;;;;;;;;;;;;4.50;100.00;94227.38;10512250;28;2885;-71
2024/03/11 02:55:52;;;;;;;;;;;;;;;4.50;100.00;94227.38;10517664;28;2863;-73
2024/03/11 03:00:56;;;;;;;;;;;;;;;4.51;100.00;94242.25;10517366;28;2960;-73
2024/03/11 03:05:59;;;;;;;;;;;;;;;4.43;100.00;94248.16;10511858;28;2800;-76
2024/03/11 03:11:03;;;;;;;;;;;;;;;4.46;100.00;94255.59;10511943;28;2844;-70
2024/03/11 03:16:06;;;;;;;;;;;;;;;4.37;100.00;94254.56;10516631;28;2891;-73
2024/03/11 03:21:10;;;;;;;;;;;;;;;4.32;100.00;94250.84;10511227;28;2789;-69
2024/03/11 03:26:13;;;;;;;;;;;;;;;4.27;100.00;94260.72;10512168;28;2829;-70
2024/03/11 03:31:17;;;;;;;;;;;;;;;4.21;100.00;94277.75;10505259;28;2914;-68
2024/03/11 03:36:20;;;;;;;;;;;;;;;4.19;100.00;94285.19;10511461;28;2954;-70
2024/03/11 03:41:22;;;;;;;;;;;;;;;4.02;100.00;94312.09;10515870;28;2855;-71
2024/03/11 03:46:25;;;;;;;;;;;;;;;3.89;100.00;94315.31;10518794;28;2786;-72
2024/03/11 03:51:28;;;;;;;;;;;;;;;3.81;100.00;94319.28;10513311;28;2879;-68
2024/03/11 03:56:31;;;;;;;;;;;;;;;3.72;100.00;94324.34;10521081;28;2958;-70
2024/03/11 04:01:34;;;;;;;;;;;;;;;3.65;100.00;94318.50;10522644;28;2881;-67
2024/03/11 04:06:36;;;;;;;;;;;;;;;3.60;100.00;94325.66;10522530;28;2856;-69
2024/03/11 04:11:39;;;;;;;;;;;;;;;3.55;100.00;94329.09;10522638;28;2835;-68
2024/03/11 04:16:42;;;;;;;;;;;;;;;3.47;100.00;94341.06;10518560;28;2905;-69
2024/03/11 04:21:47;;;;;;;;;;;;;;;3.41;100.00;94350.06;10525695;28;2867;-68
2024/03/11 04:26:50;;;;;;;;;;;;;;;3.50;100.00;94348.50;10519818;28;2922;-72
2024/03/11 04:31:53;;;;;;;;;;;;;;;3.66;100.00;94357.28;10522838;28;2962;-68
2024/03/11 04:36:56;;;;;;;;;;;;;;;3.62;100.00;94361.53;10521157;28;2732;-68
2024/03/11 04:41:58;;;;;;;;;;;;;;;3.68;100.00;94365.78;10514199;28;2812;-68
2024/03/11 04:47:03;;;;;;;;;;;;;;;3.74;100.00;94371.91;10525129;28;2781;-68
2024/03/11 04:52:08;;;;;;;;;;;;;;;3.72;100.00;94374.81;10513464;28;2816;-69
2024/03/11 04:57:10;;;;;;;;;;;;;;;3.51;100.00;94381.19;10513173;28;2871;-68
2024/03/11 05:02:13;;;;;;;;;;;;;;;3.38;100.00;94387.00;10520749;28;2876;-69
2024/03/11 05:07:15;;;;;;;;;;;;;;;3.33;100.00;94397.63;10509980;28;2921;-68
2024/03/11 05:12:18;;;;;;;;;;;;;;;3.35;100.00;94408.75;10518360;28;2823;-71
2024/03/11 05:17:21;;;;;;;;;;;;;;;3.46;100.00;94415.72;10510253;28;3181;-69
2024/03/11 05:22:24;;;;;;;;;;;;;;;3.49;100.00;94426.59;10513974;28;2752;-69
2024/03/11 05:27:26;;;;;;;;;;;;;;;3.51;100.00;94429.00;10510673;28;2906;-70
2024/03/11 05:32:30;;;;;;;;;;;;;;;3.63;100.00;94436.75;10506890;28;2828;-66
2024/03/11 05:37:33;;;;;;;;;;;;;;;3.59;100.00;94441.78;10514761;28;2864;-64
2024/03/11 05:42:35;;;;;;;;;;;;;;;3.61;100.00;94444.97;10513850;28;2901;-64
2024/03/11 05:47:38;;;;;;;;;;;;;;;3.71;100.00;94450.31;10512853;28;2863;-66
2024/03/11 05:52:44;;;;;;;;;;;;;;;3.89;100.00;94446.34;10518428;28;2839;-67
2024/03/11 05:57:48;;;;;;;;;;;;;;;4.08;100.00;94449.31;10511701;28;2851;-66
2024/03/11 06:02:51;;;;;;;;;;;;;;;4.14;100.00;94447.44;10512254;28;2875;-65
2024/03/11 06:07:54;;;;;;;;;;;;;;;4.27;100.00;94468.19;10519668;28;2804;-64
2024/03/11 06:12:57;;;;;;;;;;;;;;;4.33;100.00;94451.97;10532451;27;2879;-65
2024/03/11 06:18:00;;;;;;;;;;;;;;;4.47;100.00;94456.75;10518526;28;2792;-66
2024/03/11 06:23:04;;;;;;;;;;;;;;;4.54;100.00;94462.59;10508273;28;2892;-63
2024/03/11 06:28:07;;;;;;;;;;;;;;;4.68;100.00;94471.63;10516773;28;2753;-65
2024/03/11 06:33:11;;;;;;;;;;;;;;;4.84;100.00;94473.22;10508130;28;3245;-65
2024/03/11 06:38:16;;;;;;;;;;;;;;;4.92;100.00;94479.06;10511290;28;2867;-65
2024/03/11 06:43:18;;;;;;;;;;;;;;;5.07;100.00;94484.34;10515672;28;2883;-66
2024/03/11 06:48:21;;;;;;;;;;;;;;;5.14;100.00;94479.53;10509201;28;2870;-68
2024/03/11 06:53:24;;;;;;;;;;;;;;;5.23;100.00;94480.59;10504412;28;2909;-68
2024/03/11 06:58:27;;;;;;;;;;;;;;;5.25;100.00;94466.97;10512575;28;2852;-65
2024/03/11 07:03:32;;;;;;;;;;;;;;;5.28;100.00;94464.59;10514153;28;2902;-66
2024/03/11 07:08:35;;;;;;;;;;;;;;;5.33;100.00;94455.75;10503980;28;2848;-66
2024/03/11 07:13:37;;;;;;;;;;;;;;;5.43;100.00;94453.06;10498736;28;2866;-69
2024/03/11 07:18:43;;;;;;;;;;;;;;;5.56;100.00;94457.78;10512543;28;2850;-67
2024/03/11 07:23:48;;;;;;;;;;;;;;;5.68;100.00;94465.47;10503820;28;2913;-66
2024/03/11 07:28:51;;;;;;;;;;;;;;;5.78;100.00;94469.94;10510666;28;2923;-67
2024/03/11 07:33:55;;;;;;;;;;;;;;;5.86;100.00;94482.72;10500310;28;2891;-67
2024/03/11 07:38:58;;;;;;;;;;;;;;;5.93;100.00;94489.38;10511250;28;2788;-67
2024/03/11 07:44:00;;;;;;;;;;;;;;;6.10;100.00;94493.53;10505232;28;3006;-67
2024/03/11 07:49:05;;;;;;;;;;;;;;;6.24;100.00;94499.84;10506683;28;2882;-69
2024/03/11 07:54:11;;;;;;;;;;;;;;;6.52;100.00;94497.53;10496566;28;2893;-67
2024/03/11 07:59:16;;;;;;;;;;;;;;;6.74;100.00;94506.69;10498702;28;2886;-69
2024/03/11 08:04:18;;;;;;;;;;;;;;;6.87;100.00;94507.91;10504271;28;3007;-66
2024/03/11 08:09:21;;;;;;;;;;;;;;;7.11;100.00;94507.94;10504291;28;2892;-66
2024/03/11 08:14:25;;;;;;;;;;;;;;;7.47;100.00;94527.09;10501604;28;2878;-66
2024/03/11 08:19:27;;;;;;;;;;;;;;;7.79;100.00;94536.34;10509334;28;2844;-66
2024/03/11 08:24:30;;;;;;;;;;;;;;;8.12;100.00;94548.78;10511231;28;2797;-67
2024/03/11 08:29:34;;;;;;;;;;;;;;;8.36;100.00;94561.34;10510616;28;2903;-64
2024/03/11 08:34:38;;;;;;;;;;;;;;;8.74;100.00;94566.72;10512121;28;2888;-67
2024/03/11 08:39:41;;;;;;;;;;;;;;;8.93;100.00;94562.13;10514096;28;2791;-67
2024/03/11 08:44:44;;;;;;;;;;;;;;;9.19;100.00;94575.91;10513516;28;2827;-67
2024/03/11 08:49:47;;;;;;;;;;;;;;;9.27;100.00;94571.75;10514015;28;2793;-68
2024/03/11 08:54:50;;;;;;;;;;;;;;;9.51;100.00;94572.41;10512790;28;2797;-67
2024/03/11 08:59:54;;;;;;;;;;;;;;;9.46;100.00;94569.81;10508242;28;2875;-67
2024/03/11 09:04:56;;;;;;;;;;;;;;;9.63;100.00;94570.03;10513326;28;3409;-67
2024/03/11 09:09:59;;;;;;;;;;;;;;;9.69;100.00;94579.59;10495492;28;2955;-67
2024/03/11 09:15:02;;;;;;;;;;;;;;;9.99;100.00;94572.06;10505993;28;2911;-65
2024/03/11 09:20:08;;;;;;;;;;;;;;;9.91;100.00;94570.06;10509856;28;2829;-68
2024/03/11 09:25:11;;;;;;;;;;;;;;;9.70;100.00;94573.13;10507510;28;2806;-67
2024/03/11 09:30:13;;;;;;;;;;;;;;;9.98;100.00;94576.59;10502185;28;2906;-69
2024/03/11 09:35:17;;;;;;;;;;;;;;;10.08;100.00;94570.25;10508189;28;2893;-74
2024/03/11 09:40:19;;;;;;;;;;;;;;;9.78;100.00;94568.94;10510895;28;2927;-69
2024/03/11 09:45:22;;;;;;;;;;;;;;;9.91;100.00;94559.31;10511285;28;2849;-78
2024/03/11 09:50:27;;;;;;;;;;;;;;;10.24;100.00;94551.94;10510305;28;2840;-71
2024/03/11 09:55:31;;;;;;;;;;;;;;;10.44;100.00;94561.50;10506108;28;2871;-72
2024/03/11 10:00:33;;;;;;;;;;;;;;;10.34;100.00;94551.75;10508143;28;3144;-67
2024/03/11 10:05:44;;;;;;;;;;;;;;;10.54;100.00;94553.19;10506451;28;2930;-67
2024/03/11 10:10:47;;;;;;;;;;;;;;;10.43;100.00;94551.81;10509127;28;2786;-69
2024/03/11 10:15:50;;;;;;;;;;;;;;;10.43;100.00;94549.97;10506645;28;2847;-76
2024/03/11 10:20:53;;;;;;;;;;;;;;;10.59;100.00;94554.97;10506857;28;2799;-76
2024/03/11 10:25:58;;;;;;;;;;;;;;;10.47;100.00;94560.88;10503946;28;2876;-70
2024/03/11 10:31:03;;;;;;;;;;;;;;;10.72;100.00;94552.25;10506319;28;2870;-72
2024/03/11 10:36:06;;;;;;;;;;;;;;;11.11;100.00;94550.78;10508610;28;2882;-66
2024/03/11 10:41:08;;;;;;;;;;;;;;;10.95;100.00;94549.59;10509015;28;2780;-64
2024/03/11 10:46:11;;;;;;;;;;;;;;;11.07;100.00;94555.22;10513221;28;2824;-65
2024/03/11 10:51:14;;;;;;;;;;;;;;;11.22;100.00;94552.13;10512955;28;2828;-65
2024/03/11 10:56:23;;;;;;;;;;;;;;;11.61;100.00;94572.16;10511579;28;2805;-65
2024/03/11 11:01:26;;;;;;;;;;;;;;;11.96;100.00;94558.84;10507744;28;2945;-67
2024/03/11 11:06:28;;;;;;;;;;;;;;;12.01;95.49;94562.19;10506732;28;2903;-65
2024/03/11 11:11:31;;;;;;;;;;;;;;;12.30;93.71;94566.28;10508379;28;2883;-66
2024/03/11 11:16:34;;;;;;;;;;;;;;;11.93;92.98;94571.06;10504277;28;2760;-66
2024/03/11 11:21:39;;;;;;;;;;;;;;;11.68;94.08;94571.69;10504562;28;2816;-71
2024/03/11 11:26:42;;;;;;;;;;;;;;;11.73;96.13;94563.50;10499514;28;2834;-66
2024/03/11 11:31:45;;;;;;;;;;;;;;;11.69;94.96;94557.94;10505966;28;2911;-74
2024/03/11 11:36:51;;;;;;;;;;;;;;;11.20;97.90;94561.63;10501245;28;3296;-67
2024/03/11 11:41:54;;;;;;;;;;;;;;;11.40;97.97;94552.25;10507127;28;2859;-68
2024/03/11 11:46:58;;;;;;;;;;;;;;;11.53;98.29;94546.00;10499935;28;2882;-68
2024/03/11 11:52:04;;;;;;;;;;;;;;;11.82;94.24;94543.59;10503525;28;2819;-67
2024/03/11 11:57:10;;;;;;;;;;;;;;;11.50;92.69;94547.38;10509635;28;2931;-68
2024/03/11 12:02:13;;;;;;;;;;;;;;;11.49;95.72;94553.09;10511167;28;2900;-67
2024/03/11 12:07:22;;;;;;;;;;;;;;;11.73;97.67;94550.84;10516323;28;2816;-69
2024/03/11 12:12:25;;;;;;;;;;;;;;;11.67;98.51;94552.06;10514214;28;2823;-73
2024/03/11 12:17:29;;;;;;;;;;;;;;;12.13;94.62;94561.63;10513386;28;2885;-68
2024/03/11 12:22:32;;;;;;;;;;;;;;;12.59;86.16;94552.97;10509126;28;2773;-67
2024/03/11 12:27:35;;;;;;;;;;;;;;;12.84;83.81;94545.22;10506191;28;2966;-67
2024/03/11 12:32:39;;;;;;;;;;;;;;;13.13;80.17;94555.38;10507080;28;2847;-72
2024/03/11 12:37:43;;;;;;;;;;;;;;;13.20;77.21;94548.41;10507603;28;2884;-66
2024/03/11 12:42:45;;;;;;;;;;;;;;;13.43;73.75;94545.53;10507751;28;2795;-68
2024/03/11 12:47:50;;;;;;;;;;;;;;;13.33;75.70;94554.75;10507245;28;3200;-68
2024/03/11 12:52:53;;;;;;;;;;;;;;;13.12;74.02;94556.50;10509465;28;2904;-67
2024/03/11 12:57:56;;;;;;;;;;;;;;;13.23;79.34;94555.06;10512103;28;2879;-69
2024/03/11 13:02:59;;;;;;;;;;;;;;;13.17;75.78;94561.75;10508447;28;2853;-68
2024/03/11 13:08:03;;;;;;;;;;;;;;;13.24;70.34;94562.06;10513628;28;2803;-67
2024/03/11 13:13:06;;;;;;;;;;;;;;;13.10;67.05;94556.78;10510024;28;2911;-68
2024/03/11 13:18:09;;;;;;;;;;;;;;;13.64;65.96;94559.13;10514387;28;2828;-68
2024/03/11 13:23:12;;;;;;;;;;;;;;;13.81;63.15;94551.00;10508760;28;2828;-68
2024/03/11 13:28:14;;;;;;;;;;;;;;;14.01;64.32;94542.16;10508135;28;2948;-66
2024/03/11 13:33:17;;;;;;;;;;;;;;;13.49;68.56;94546.94;10510053;28;2787;-67
2024/03/11 13:38:20;;;;;;;;;;;;;;;13.03;70.39;94550.31;10512836;28;2819;-67
2024/03/11 13:43:23;;;;;;;;;;;;;;;13.23;70.74;94555.06;10509096;28;2890;-65
2024/03/11 13:48:27;;;;;;;;;;;;;;;13.38;70.08;94560.00;10507264;28;2834;-67
2024/03/11 13:53:31;;;;;;;;;;;;;;;13.26;68.53;94567.94;10514493;28;2873;-67
2024/03/11 13:58:35;;;;;;;;;;;;;;;13.39;69.94;94558.88;10508106;28;2844;-67
2024/03/11 14:03:40;;;;;;;;;;;;;;;13.56;66.20;94559.97;10506343;28;2808;-68
2024/03/11 14:08:47;;;;;;;;;;;;;;;13.30;67.08;94560.81;10503040;28;2839;-67
2024/03/11 14:13:51;;;;;;;;;;;;;;;13.38;64.92;94560.00;10506990;28;2801;-69
2024/03/11 14:18:55;;;;;;;;;;;;;;;13.30;67.53;94560.81;10507198;28;2946;-67
2024/03/11 14:23:58;;;;;;;;;;;;;;;13.50;66.75;94565.53;10506038;28;2856;-69
2024/03/11 14:29:01;;;;;;;;;;;;;;;13.84;64.44;94557.63;10499651;28;2855;-66
2024/03/11 14:34:06;;;;;;;;;;;;;;;13.63;62.96;94561.03;10510021;28;2840;-67
2024/03/11 14:39:16;;;;;;;;;;;;;;;13.61;63.01;94562.47;10505642;28;2805;-71
2024/03/11 14:44:20;;;;;;;;;;;;;;;13.58;62.90;94561.22;10504241;28;2867;-69
2024/03/11 14:49:23;;;;;;;;;;;;;;;13.70;64.06;94569.44;10499328;28;3006;-66
2024/03/11 14:54:29;;;;;;;;;;;;;;;13.70;63.16;94566.75;10503273;28;2841;-66
2024/03/11 14:59:34;;;;;;;;;;;;;;;13.85;61.86;94567.31;10507539;28;2792;-66
2024/03/11 15:04:40;;;;;;;;;;;;;;;13.98;60.05;94571.72;10500313;28;2845;-67
2024/03/11 15:09:42;;;;;;;;;;;;;;;13.91;60.26;94566.81;10504843;28;2805;-65
2024/03/11 15:14:45;;;;;;;;;;;;;;;13.29;62.57;94567.28;10500553;28;2929;-69
2024/03/11 15:19:48;;;;;;;;;;;;;;;13.22;62.22;94564.28;10508645;28;2828;-68
2024/03/11 15:24:50;;;;;;;;;;;;;;;13.13;64.66;94569.66;10497290;28;2880;-69
2024/03/11 15:29:53;;;;;;;;;;;;;;;12.85;68.11;94566.50;10503243;28;2963;-66
2024/03/11 15:34:56;;;;;;;;;;;;;;;12.80;70.31;94574.75;10503733;28;2840;-65
2024/03/11 15:39:58;;;;;;;;;;;;;;;12.48;75.07;94578.69;10505684;28;2943;-65
2024/03/11 15:45:01;;;;;;;;;;;;;;;12.42;73.29;94574.53;10503744;28;2792;-72
2024/03/11 15:50:08;;;;;;;;;;;;;;;12.40;73.07;94588.31;10502056;28;2968;-67
2024/03/11 15:55:11;;;;;;;;;;;;;;;12.54;73.72;94595.50;10503386;28;2756;-66
2024/03/11 16:00:16;;;;;;;;;;;;;;;12.49;74.11;94596.44;10507135;28;2916;-66
2024/03/11 16:05:22;;;;;;;;;;;;;;;12.27;76.85;94597.31;10503872;28;2922;-67
2024/03/11 16:10:27;;;;;;;;;;;;;;;12.10;81.35;94602.66;10502315;28;2892;-66
2024/03/11 16:15:30;;;;;;;;;;;;;;;12.01;82.99;94607.19;10503443;28;2875;-72
2024/03/11 16:20:33;;;;;;;;;;;;;;;11.98;83.23;94613.22;10502134;28;2956;-73
2024/03/11 16:25:36;;;;;;;;;;;;;;;11.80;87.92;94617.69;10504378;28;2804;-69
2024/03/11 16:30:39;;;;;;;;;;;;;;;11.62;88.68;94635.63;10502944;28;2955;-69
2024/03/11 16:35:44;;;;;;;;;;;;;;;11.62;90.60;94635.63;10503521;28;3045;-66
2024/03/11 16:40:48;;;;;;;;;;;;;;;11.40;94.87;94646.44;10500039;28;2922;-72
2024/03/11 16:45:52;;;;;;;;;;;;;;;11.34;97.69;94654.63;10508221;28;2781;-69
2024/03/11 16:50:57;;;;;;;;;;;;;;;11.26;97.85;94663.41;10509509;28;2799;-69
2024/03/11 16:56:03;;;;;;;;;;;;;;;11.13;100.00;94672.31;10512936;28;2821;-72
2024/03/11 17:01:08;;;;;;;;;;;;;;;10.89;100.00;94679.84;10511235;28;2789;-69
2024/03/11 17:06:13;;;;;;;;;;;;;;;10.82;100.00;94685.66;10515906;28;2783;-66
2024/03/11 17:11:17;;;;;;;;;;;;;;;10.64;100.00;94687.34;10509294;28;3315;-68
2024/03/11 17:16:20;;;;;;;;;;;;;;;10.48;100.00;94702.97;10509525;28;2892;-67
2024/03/11 17:21:25;;;;;;;;;;;;;;;10.45;100.00;94708.16;10505611;28;2889;-67
2024/03/11 17:26:30;;;;;;;;;;;;;;;10.36;100.00;94715.31;10545951;28;2907;-89
2024/03/11 17:31:35;;;;;;;;;;;;;;;10.36;100.00;94720.66;10559887;28;2974;-91
2024/03/11 17:36:38;;;;;;;;;;;;;;;10.22;100.00;94729.47;10563637;28;2858;-90
2024/03/11 17:41:41;;;;;;;;;;;;;;;10.39;100.00;94737.00;10538681;28;2915;-74
2024/03/11 17:46:44;;;;;;;;;;;;;;;10.15;100.00;94747.88;10515190;28;2866;-68
2024/03/11 17:51:47;;;;;;;;;;;;;;;10.06;100.00;94755.03;10509866;28;2898;-66
2024/03/11 17:56:50;;;;;;;;;;;;;;;10.04;100.00;94762.56;10509075;28;2852;-67
2024/03/11 18:01:54;;;;;;;;;;;;;;;9.87;100.00;94763.13;10512082;28;2870;-65
2024/03/11 18:06:57;;;;;;;;;;;;;;;9.72;100.00;94761.47;10509557;28;2845;-66
2024/03/11 18:12:00;;;;;;;;;;;;;;;9.73;100.00;94768.44;10510372;28;2887;-67
2024/03/11 18:17:05;;;;;;;;;;;;;;;9.78;100.00;94780.19;10510832;28;2953;-68
2024/03/11 18:22:09;;;;;;;;;;;;;;;9.85;100.00;94796.69;10511322;28;2803;-67
2024/03/11 18:27:11;;;;;;;;;;;;;;;9.95;100.00;94793.88;10508506;28;2875;-66
2024/03/11 18:32:14;;;;;;;;;;;;;;;10.03;100.00;94798.56;10508938;28;2884;-66
2024/03/11 18:37:17;;;;;;;;;;;;;;;10.02;100.00;94802.34;10513591;28;2938;-67
2024/03/11 18:42:21;;;;;;;;;;;;;;;9.97;100.00;94819.31;10506318;28;2903;-68
2024/03/11 18:47:25;;;;;;;;;;;;;;;10.06;100.00;94822.16;10502723;28;2800;-69
2024/03/11 18:52:27;;;;;;;;;;;;;;;9.92;100.00;94829.34;10512287;28;2997;-66
2024/03/11 18:57:39;;;;;;;;;;;;;;;9.68;100.00;94832.13;10509596;28;2868;-66
2024/03/11 19:02:47;;;;;;;;;;;;;;;9.52;100.00;94836.91;10501926;28;2809;-68
2024/03/11 19:07:51;;;;;;;;;;;;;;;9.42;100.00;94855.81;10504386;28;2887;-68
2024/03/11 19:12:54;;;;;;;;;;;;;;;9.42;100.00;94847.78;10502459;28;2860;-67
2024/03/11 19:17:58;;;;;;;;;;;;;;;9.34;100.00;94859.13;10500376;28;2866;-65
2024/03/11 19:23:02;;;;;;;;;;;;;;;9.25;100.00;94868.91;10509964;28;2837;-66
2024/03/11 19:28:05;;;;;;;;;;;;;;;9.08;100.00;94872.84;10504967;28;2836;-66
2024/03/11 19:33:08;;;;;;;;;;;;;;;9.03;100.00;94872.91;10504729;28;2816;-67
2024/03/11 19:38:13;;;;;;;;;;;;;;;8.85;100.00;94877.13;10503744;28;2797;-66
2024/03/11 19:43:22;;;;;;;;;;;;;;;8.73;100.00;94889.31;10498064;28;2856;-67
2024/03/11 19:48:25;;;;;;;;;;;;;;;8.64;100.00;94894.47;10506762;28;2960;-68
2024/03/11 19:53:28;;;;;;;;;;;;;;;8.57;100.00;94907.41;10504604;28;2863;-67
2024/03/11 19:58:31;;;;;;;;;;;;;;;8.53;100.00;94911.75;10501148;28;2913;-69
2024/03/11 20:03:34;;;;;;;;;;;;;;;8.56;100.00;94928.03;10502755;28;2824;-68
2024/03/11 20:08:37;;;;;;;;;;;;;;;8.64;100.00;94930.09;10503915;28;2897;-65
2024/03/11 20:13:40;;;;;;;;;;;;;;;8.60;100.00;94939.81;10501365;28;2932;-66
2024/03/11 20:18:45;;;;;;;;;;;;;;;8.49;100.00;94940.16;10510367;28;2823;-67
2024/03/11 20:23:48;;;;;;;;;;;;;;;8.40;100.00;94950.69;10513151;28;2828;-67
2024/03/11 20:28:51;;;;;;;;;;;;;;;8.27;100.00;94961.97;10510473;28;2842;-69
2024/03/11 20:34:00;;;;;;;;;;;;;;;8.27;100.00;94965.47;10503465;28;2848;-72
2024/03/11 20:39:07;;;;;;;;;;;;;;;8.24;100.00;94967.88;10503074;28;2867;-67
2024/03/11 20:44:11;;;;;;;;;;;;;;;8.34;100.00;94981.22;10508364;28;2885;-66
2024/03/11 20:49:15;;;;;;;;;;;;;;;8.32;100.00;94978.00;10505833;28;2907;-68
2024/03/11 20:54:18;;;;;;;;;;;;;;;8.33;100.00;94980.44;10508620;28;2865;-67
2024/03/11 20:59:22;;;;;;;;;;;;;;;8.20;100.00;94983.69;10507575;28;2892;-68
2024/03/11 21:04:26;;;;;;;;;;;;;;;8.11;100.00;94988.06;10500635;28;2947;-76
2024/03/11 21:09:29;;;;;;;;;;;;;;;8.04;100.00;95000.94;10519446;28;2207;-67
2024/03/11 21:14:33;;;;;;;;;;;;;;;7.95;100.00;95006.09;10527880;28;2309;-67
2024/03/11 21:19:38;;;;;;;;;;;;;;;7.85;100.00;95009.59;10521527;28;1473;-69
2024/03/11 21:24:50;;;;;;;;;;;;;;;7.78;100.00;95019.00;10519547;28;2306;-66
2024/03/11 21:29:55;;;;;;;;;;;;;;;7.67;100.00;95012.06;10520283;28;2992;-66
2024/03/11 21:35:00;;;;;;;;;;;;;;;7.62;100.00;95017.44;10529564;28;1755;-66
2024/03/11 21:40:09;;;;;;;;;;;;;;;7.52;100.00;95024.44;10522540;28;1915;-66
2024/03/11 21:45:12;;;;;;;;;;;;;;;7.47;100.00;95019.09;10526115;28;1993;-66
2024/03/11 21:50:16;;;;;;;;;;;;;;;7.39;100.00;95014.31;10523925;28;1865;-67
2024/03/11 21:55:19;;;;;;;;;;;;;;;7.41;100.00;95019.38;10526789;28;1393;-66
2024/03/11 22:00:21;;;;;;;;;;;;;;;7.35;100.00;95026.63;10521221;28;2086;-66
2024/03/11 22:05:24;;;;;;;;;;;;;;;7.29;100.00;95033.03;10520170;28;1977;-65
2024/03/11 22:10:29;;;;;;;;;;;;;;;7.27;100.00;95029.84;10522033;28;1539;-67
2024/03/11 22:15:32;;;;;;;;;;;;;;;7.20;100.00;95035.47;10533042;28;2071;-67
2024/03/11 22:20:36;;;;;;;;;;;;;;;7.06;100.00;95042.41;10523812;28;1893;-66
2024/03/11 22:25:39;;;;;;;;;;;;;;;7.09;100.00;95049.13;10525902;28;1926;-66
2024/03/11 22:30:42;;;;;;;;;;;;;;;7.03;100.00;95057.13;10526790;28;1911;-68
2024/03/11 22:35:45;;;;;;;;;;;;;;;6.88;100.00;95065.16;10524580;28;3044;-64
2024/03/11 22:40:47;;;;;;;;;;;;;;;6.81;100.00;95059.28;10516960;28;1900;-67
2024/03/11 22:45:50;;;;;;;;;;;;;;;6.76;100.00;95062.75;10515973;28;1914;-65
2024/03/11 22:50:52;;;;;;;;;;;;;;;6.95;100.00;95064.91;10524674;28;1956;-66
2024/03/11 22:55:55;;;;;;;;;;;;;;;7.04;100.00;95076.63;10519910;28;1865;-66
2024/03/11 23:01:05;;;;;;;;;;;;;;;7.07;100.00;95078.78;10523261;28;1884;-67
2024/03/11 23:06:14;;;;;;;;;;;;;;;7.17;100.00;95094.00;10527401;28;2079;-66
2024/03/11 23:11:17;;;;;;;;;;;;;;;7.17;100.00;95083.31;10528516;28;1873;-66
2024/03/11 23:16:20;;;;;;;;;;;;;;;7.18;100.00;95076.91;10537581;28;1848;-65
2024/03/11 23:21:25;;;;;;;;;;;;;;;7.09;100.00;95079.31;10522427;28;2797;-66
2024/03/11 23:26:27;;;;;;;;;;;;;;;7.05;100.00;95080.91;10519482;28;1982;-69
2024/03/11 23:31:30;;;;;;;;;;;;;;;6.97;100.00;95092.13;10521186;28;1874;-67
2024/03/11 23:36:33;;;;;;;;;;;;;;;6.94;100.00;95088.16;10526671;28;2039;-68
2024/03/11 23:41:38;;;;;;;;;;;;;;;6.86;100.00;95087.84;10525987;28;1896;-66
2024/03/11 23:46:43;;;;;;;;;;;;;;;6.90;100.00;95095.09;10524303;28;1971;-71
2024/03/11 23:51:47;;;;;;;;;;;;;;;6.94;100.00;95096.16;10525016;28;1877;-72
2024/03/11 23:56:52;;;;;;;;;;;;;;;6.99;100.00;95098.00;10532969;28;1866;-66
